sensor_id;sensor_type;location;lat;lon;timestamp;pressure;altitude;pressure_sealevel;temperature;humidity
62725;BME280;49026;52.600;4.694;2023-06-22T00:01:11;102001.44;;;14.23;69.33
62725;BME280;49026;52.600;4.694;2023-06-22T00:03:36;101998.91;;;14.20;69.16
62725;BME280;49026;52.600;4.694;2023-06-22T00:06:04;102003.47;;;14.16;69.62
62725;BME280;49026;52.600;4.694;2023-06-22T00:08:32;102008.94;;;14.12;69.44
62725;BME280;49026;52.600;4.694;2023-06-22T00:10:59;102002.81;;;14.09;68.80
62725;BME280;49026;52.600;4.694;2023-06-22T00:13:24;102008.16;;;14.08;68.51
62725;BME280;49026;52.600;4.694;2023-06-22T00:15:52;102000.41;;;14.03;68.95
62725;BME280;49026;52.600;4.694;2023-06-22T00:18:17;102003.16;;;14.00;69.12
62725;BME280;49026;52.600;4.694;2023-06-22T00:20:45;102002.38;;;13.98;69.14
62725;BME280;49026;52.600;4.694;2023-06-22T00:23:11;101999.78;;;13.97;69.23
62725;BME280;49026;52.600;4.694;2023-06-22T00:25:41;102006.03;;;13.94;69.31
62725;BME280;49026;52.600;4.694;2023-06-22T00:28:07;102012.16;;;13.95;69.65
62725;BME280;49026;52.600;4.694;2023-06-22T00:30:33;102009.56;;;13.93;69.55
62725;BME280;49026;52.600;4.694;2023-06-22T00:33:01;102010.56;;;13.90;69.28
62725;BME280;49026;52.600;4.694;2023-06-22T00:35:27;102005.38;;;13.87;69.37
62725;BME280;49026;52.600;4.694;2023-06-22T00:38:03;102008.91;;;13.86;69.94
62725;BME280;49026;52.600;4.694;2023-06-22T00:40:33;102014.19;;;13.86;69.91
62725;BME280;49026;52.600;4.694;2023-06-22T00:42:58;102019.50;;;13.86;69.92
62725;BME280;49026;52.600;4.694;2023-06-22T00:45:24;102022.03;;;13.89;69.86
62725;BME280;49026;52.600;4.694;2023-06-22T00:47:57;102019.22;;;13.94;70.40
62725;BME280;49026;52.600;4.694;2023-06-22T00:50:24;102012.94;;;13.98;70.23
62725;BME280;49026;52.600;4.694;2023-06-22T00:52:55;102013.84;;;13.97;70.44
62725;BME280;49026;52.600;4.694;2023-06-22T00:55:26;102015.72;;;13.94;70.29
62725;BME280;49026;52.600;4.694;2023-06-22T00:57:52;102014.97;;;13.90;70.63
62725;BME280;49026;52.600;4.694;2023-06-22T01:00:22;102016.94;;;13.85;70.31
62725;BME280;49026;52.600;4.694;2023-06-22T01:02:52;102017.84;;;13.84;70.32
62725;BME280;49026;52.600;4.694;2023-06-22T01:05:19;102012.66;;;13.81;70.51
62725;BME280;49026;52.600;4.694;2023-06-22T01:12:50;102008.41;;;13.77;70.87
62725;BME280;49026;52.600;4.694;2023-06-22T01:15:33;102000.59;;;13.74;71.02
62725;BME280;49026;52.600;4.694;2023-06-22T01:18:03;102008.56;;;13.72;70.80
62725;BME280;49026;52.600;4.694;2023-06-22T01:20:31;102006.78;;;13.73;70.80
62725;BME280;49026;52.600;4.694;2023-06-22T01:26:20;101992.66;;;13.74;70.64
62725;BME280;49026;52.600;4.694;2023-06-22T01:28:54;102005.91;;;13.72;70.84
62725;BME280;49026;52.600;4.694;2023-06-22T01:31:23;102000.78;;;13.67;70.52
62725;BME280;49026;52.600;4.694;2023-06-22T01:33:57;102000.94;;;13.63;70.65
62725;BME280;49026;52.600;4.694;2023-06-22T01:36:24;102004.50;;;13.62;70.69
62725;BME280;49026;52.600;4.694;2023-06-22T01:38:50;101996.66;;;13.60;70.72
62725;BME280;49026;52.600;4.694;2023-06-22T01:41:17;101998.47;;;13.58;71.07
62725;BME280;49026;52.600;4.694;2023-06-22T01:43:43;102002.97;;;13.55;70.60
62725;BME280;49026;52.600;4.694;2023-06-22T01:46:10;102008.38;;;13.51;71.10
62725;BME280;49026;52.600;4.694;2023-06-22T01:48:38;102006.59;;;13.52;71.33
62725;BME280;49026;52.600;4.694;2023-06-22T01:51:04;102014.56;;;13.50;71.20
62725;BME280;49026;52.600;4.694;2023-06-22T01:53:29;102011.06;;;13.50;71.08
62725;BME280;49026;52.600;4.694;2023-06-22T01:55:56;102011.19;;;13.47;71.54
62725;BME280;49026;52.600;4.694;2023-06-22T01:58:25;102011.28;;;13.44;71.46
62725;BME280;49026;52.600;4.694;2023-06-22T02:00:54;102007.00;;;13.40;71.46
62725;BME280;49026;52.600;4.694;2023-06-22T02:03:26;102012.34;;;13.38;71.33
62725;BME280;49026;52.600;4.694;2023-06-22T02:06:00;102005.34;;;13.37;71.44
62725;BME280;49026;52.600;4.694;2023-06-22T02:08:33;101999.25;;;13.35;71.31
62725;BME280;49026;52.600;4.694;2023-06-22T02:11:02;102001.91;;;13.35;71.32
62725;BME280;49026;52.600;4.694;2023-06-22T02:13:28;102002.84;;;13.31;71.67
62725;BME280;49026;52.600;4.694;2023-06-22T02:15:54;102002.06;;;13.29;71.55
62725;BME280;49026;52.600;4.694;2023-06-22T02:18:19;102003.00;;;13.26;71.78
62725;BME280;49026;52.600;4.694;2023-06-22T02:20:46;102003.97;;;13.24;71.75
62725;BME280;49026;52.600;4.694;2023-06-22T02:23:11;102002.28;;;13.21;71.40
62725;BME280;49026;52.600;4.694;2023-06-22T02:25:36;101989.28;;;13.16;72.00
62725;BME280;49026;52.600;4.694;2023-06-22T02:28:03;101986.72;;;13.13;71.57
62725;BME280;49026;52.600;4.694;2023-06-22T02:30:28;101983.28;;;13.11;71.77
62725;BME280;49026;52.600;4.694;2023-06-22T02:32:53;101980.66;;;13.11;71.72
62725;BME280;49026;52.600;4.694;2023-06-22T02:35:26;101977.13;;;13.11;72.19
62725;BME280;49026;52.600;4.694;2023-06-22T02:37:52;101987.69;;;13.11;71.68
62725;BME280;49026;52.600;4.694;2023-06-22T02:40:17;101978.06;;;13.10;72.02
62725;BME280;49026;52.600;4.694;2023-06-22T02:42:43;101983.44;;;13.07;71.79
62725;BME280;49026;52.600;4.694;2023-06-22T02:45:08;101978.19;;;13.05;72.11
62725;BME280;49026;52.600;4.694;2023-06-22T02:47:34;101982.63;;;13.05;72.21
62725;BME280;49026;52.600;4.694;2023-06-22T02:49:59;101987.91;;;13.05;72.19
62725;BME280;49026;52.600;4.694;2023-06-22T02:52:25;101991.47;;;13.02;71.84
62725;BME280;49026;52.600;4.694;2023-06-22T02:54:50;101988.00;;;13.02;72.16
62725;BME280;49026;52.600;4.694;2023-06-22T02:57:16;101981.88;;;13.00;72.17
62725;BME280;49026;52.600;4.694;2023-06-22T02:59:42;101985.44;;;12.98;72.08
62725;BME280;49026;52.600;4.694;2023-06-22T03:02:08;101982.03;;;12.95;72.11
62725;BME280;49026;52.600;4.694;2023-06-22T03:04:34;101979.41;;;12.95;72.37
62725;BME280;49026;52.600;4.694;2023-06-22T03:07:00;101973.25;;;12.94;72.49
62725;BME280;49026;52.600;4.694;2023-06-22T03:09:27;101983.75;;;12.96;72.12
62725;BME280;49026;52.600;4.694;2023-06-22T03:11:55;101977.66;;;12.94;72.44
62725;BME280;49026;52.600;4.694;2023-06-22T03:14:21;101969.75;;;12.94;72.37
62725;BME280;49026;52.600;4.694;2023-06-22T03:16:46;101978.56;;;12.93;72.69
62725;BME280;49026;52.600;4.694;2023-06-22T03:19:12;101971.59;;;12.92;72.41
62725;BME280;49026;52.600;4.694;2023-06-22T03:21:39;101973.41;;;12.90;72.59
62725;BME280;49026;52.600;4.694;2023-06-22T03:24:05;101970.81;;;12.88;72.78
62725;BME280;49026;52.600;4.694;2023-06-22T03:26:31;101979.63;;;12.87;72.41
62725;BME280;49026;52.600;4.694;2023-06-22T03:28:56;101974.28;;;12.90;72.79
62725;BME280;49026;52.600;4.694;2023-06-22T03:31:22;101974.97;;;12.95;72.68
62725;BME280;49026;52.600;4.694;2023-06-22T03:33:49;101972.25;;;12.98;72.67
62725;BME280;49026;52.600;4.694;2023-06-22T03:36:15;101974.78;;;13.02;72.86
62725;BME280;49026;52.600;4.694;2023-06-22T03:38:51;101974.69;;;13.05;72.83
62725;BME280;49026;52.600;4.694;2023-06-22T03:41:16;101971.94;;;13.08;72.94
62725;BME280;49026;52.600;4.694;2023-06-22T03:43:42;101975.38;;;13.11;72.89
62725;BME280;49026;52.600;4.694;2023-06-22T03:46:07;101977.88;;;13.14;72.87
62725;BME280;49026;52.600;4.694;2023-06-22T03:48:33;101977.72;;;13.19;72.81
62725;BME280;49026;52.600;4.694;2023-06-22T03:51:01;101969.63;;;13.25;72.92
62725;BME280;49026;52.600;4.694;2023-06-22T03:53:28;101962.41;;;13.30;72.68
62725;BME280;49026;52.600;4.694;2023-06-22T03:55:53;101956.13;;;13.34;73.11
62725;BME280;49026;52.600;4.694;2023-06-22T03:58:20;101955.97;;;13.39;73.28
62725;BME280;49026;52.600;4.694;2023-06-22T04:00:47;101954.94;;;13.45;73.24
62725;BME280;49026;52.600;4.694;2023-06-22T04:03:13;101953.00;;;13.50;73.13
62725;BME280;49026;52.600;4.694;2023-06-22T04:05:39;101949.31;;;13.54;73.35
62725;BME280;49026;52.600;4.694;2023-06-22T04:08:05;101948.16;;;13.61;73.52
62725;BME280;49026;52.600;4.694;2023-06-22T04:10:30;101944.22;;;13.73;73.62
62725;BME280;49026;52.600;4.694;2023-06-22T04:12:56;101954.44;;;13.84;73.59
62725;BME280;49026;52.600;4.694;2023-06-22T04:15:21;101945.41;;;13.89;73.78
62725;BME280;49026;52.600;4.694;2023-06-22T04:17:46;101958.13;;;14.03;73.62
62725;BME280;49026;52.600;4.694;2023-06-22T04:20:12;101951.28;;;14.21;73.82
62725;BME280;49026;52.600;4.694;2023-06-22T04:22:37;101955.19;;;14.35;73.72
62725;BME280;49026;52.600;4.694;2023-06-22T04:25:03;101951.09;;;14.50;73.61
62725;BME280;49026;52.600;4.694;2023-06-22T04:27:28;101943.28;;;14.70;73.89
62725;BME280;49026;52.600;4.694;2023-06-22T04:29:53;101946.28;;;14.83;73.63
62725;BME280;49026;52.600;4.694;2023-06-22T04:32:19;101942.41;;;14.92;73.68
62725;BME280;49026;52.600;4.694;2023-06-22T04:34:44;101949.78;;;15.06;73.59
62725;BME280;49026;52.600;4.694;2023-06-22T04:37:09;101951.72;;;15.23;73.63
62725;BME280;49026;52.600;4.694;2023-06-22T04:39:41;101951.59;;;15.46;73.62
62725;BME280;49026;52.600;4.694;2023-06-22T04:42:06;101953.06;;;15.74;73.47
62725;BME280;49026;52.600;4.694;2023-06-22T04:44:32;101949.81;;;16.07;73.32
62725;BME280;49026;52.600;4.694;2023-06-22T04:46:58;101945.56;;;16.42;73.18
62725;BME280;49026;52.600;4.694;2023-06-22T04:49:29;101942.00;;;16.80;72.98
62725;BME280;49026;52.600;4.694;2023-06-22T04:51:59;101943.63;;;17.19;73.08
62725;BME280;49026;52.600;4.694;2023-06-22T04:54:24;101940.81;;;17.57;72.71
62725;BME280;49026;52.600;4.694;2023-06-22T04:56:49;101938.28;;;17.89;72.46
62725;BME280;49026;52.600;4.694;2023-06-22T04:59:22;101946.38;;;18.19;72.50
62725;BME280;49026;52.600;4.694;2023-06-22T05:02:01;101946.31;;;18.52;72.61
62725;BME280;49026;52.600;4.694;2023-06-22T05:04:28;101949.75;;;18.70;72.32
62725;BME280;49026;52.600;4.694;2023-06-22T05:06:57;101950.78;;;18.84;72.07
62725;BME280;49026;52.600;4.694;2023-06-22T05:09:22;101953.53;;;18.98;72.16
62725;BME280;49026;52.600;4.694;2023-06-22T05:11:49;101954.72;;;19.09;71.65
62725;BME280;49026;52.600;4.694;2023-06-22T05:14:14;101953.97;;;19.21;71.75
62725;BME280;49026;52.600;4.694;2023-06-22T05:16:41;101952.38;;;19.33;71.99
62725;BME280;49026;52.600;4.694;2023-06-22T05:19:07;101952.59;;;19.30;71.83
62725;BME280;49026;52.600;4.694;2023-06-22T05:21:32;101943.63;;;19.31;72.04
62725;BME280;49026;52.600;4.694;2023-06-22T05:23:58;101941.19;;;19.42;71.75
62725;BME280;49026;52.600;4.694;2023-06-22T05:26:29;101945.81;;;19.69;71.56
62725;BME280;49026;52.600;4.694;2023-06-22T05:28:55;101950.03;;;19.87;71.44
62725;BME280;49026;52.600;4.694;2023-06-22T05:31:21;101943.19;;;19.83;71.35
62725;BME280;49026;52.600;4.694;2023-06-22T05:33:47;101942.81;;;19.75;71.57
62725;BME280;49026;52.600;4.694;2023-06-22T05:36:13;101929.03;;;19.67;71.73
62725;BME280;49026;52.600;4.694;2023-06-22T05:38:39;101935.81;;;19.58;72.19
62725;BME280;49026;52.600;4.694;2023-06-22T05:41:05;101942.34;;;19.52;72.28
62725;BME280;49026;52.600;4.694;2023-06-22T05:43:31;101944.47;;;19.61;72.47
62725;BME280;49026;52.600;4.694;2023-06-22T05:45:57;101945.22;;;19.63;72.23
62725;BME280;49026;52.600;4.694;2023-06-22T05:48:22;101951.22;;;19.67;72.23
62725;BME280;49026;52.600;4.694;2023-06-22T05:50:48;101959.09;;;19.85;72.48
62725;BME280;49026;52.600;4.694;2023-06-22T05:53:13;101969.56;;;20.02;72.16
62725;BME280;49026;52.600;4.694;2023-06-22T05:55:39;101963.53;;;20.27;72.11
62725;BME280;49026;52.600;4.694;2023-06-22T05:58:04;101959.28;;;20.66;71.70
62725;BME280;49026;52.600;4.694;2023-06-22T06:00:30;101957.63;;;21.05;70.73
62725;BME280;49026;52.600;4.694;2023-06-22T06:02:55;101963.34;;;21.39;70.95
62725;BME280;49026;52.600;4.694;2023-06-22T06:05:20;101962.34;;;21.55;70.46
62725;BME280;49026;52.600;4.694;2023-06-22T06:07:46;101967.56;;;21.56;70.54
62725;BME280;49026;52.600;4.694;2023-06-22T06:10:12;101955.63;;;21.35;70.65
62725;BME280;49026;52.600;4.694;2023-06-22T06:12:38;101944.78;;;20.98;71.23
62725;BME280;49026;52.600;4.694;2023-06-22T06:15:04;101954.06;;;20.65;71.82
62725;BME280;49026;52.600;4.694;2023-06-22T06:17:30;101957.59;;;20.51;72.47
62725;BME280;49026;52.600;4.694;2023-06-22T06:19:55;101959.50;;;20.49;72.64
62725;BME280;49026;52.600;4.694;2023-06-22T06:22:21;101950.75;;;20.47;72.66
62725;BME280;49026;52.600;4.694;2023-06-22T06:24:47;101950.94;;;20.44;72.64
62725;BME280;49026;52.600;4.694;2023-06-22T06:27:13;101946.63;;;20.41;72.95
62725;BME280;49026;52.600;4.694;2023-06-22T06:29:39;101944.94;;;20.40;72.85
62725;BME280;49026;52.600;4.694;2023-06-22T06:32:04;101944.06;;;20.40;72.91
62725;BME280;49026;52.600;4.694;2023-06-22T06:34:29;101944.44;;;20.48;73.18
62725;BME280;49026;52.600;4.694;2023-06-22T06:36:55;101943.56;;;20.62;73.46
62725;BME280;49026;52.600;4.694;2023-06-22T06:39:20;101948.66;;;20.79;73.68
62725;BME280;49026;52.600;4.694;2023-06-22T06:41:46;101946.09;;;21.05;73.69
62725;BME280;49026;52.600;4.694;2023-06-22T06:44:11;101940.88;;;21.29;73.68
62725;BME280;49026;52.600;4.694;2023-06-22T06:46:37;101945.28;;;21.43;73.35
62725;BME280;49026;52.600;4.694;2023-06-22T06:49:03;101946.28;;;21.55;73.92
62725;BME280;49026;52.600;4.694;2023-06-22T06:51:28;101943.53;;;21.69;73.55
62725;BME280;49026;52.600;4.694;2023-06-22T06:53:54;101932.06;;;21.80;73.60
62725;BME280;49026;52.600;4.694;2023-06-22T06:56:19;101939.53;;;22.00;73.90
62725;BME280;49026;52.600;4.694;2023-06-22T06:58:45;101939.50;;;22.13;73.47
62725;BME280;49026;52.600;4.694;2023-06-22T07:01:12;101936.50;;;22.18;73.35
62725;BME280;49026;52.600;4.694;2023-06-22T07:03:38;101938.63;;;22.26;73.73
62725;BME280;49026;52.600;4.694;2023-06-22T07:06:03;101935.84;;;22.27;73.18
62725;BME280;49026;52.600;4.694;2023-06-22T07:08:29;101935.84;;;22.27;73.23
62725;BME280;49026;52.600;4.694;2023-06-22T07:10:54;101936.41;;;22.32;73.19
62725;BME280;49026;52.600;4.694;2023-06-22T07:15:59;101927.22;;;22.48;72.21
62725;BME280;49026;52.600;4.694;2023-06-22T07:18:24;101929.50;;;22.65;73.25
62725;BME280;49026;52.600;4.694;2023-06-22T07:20:52;101926.00;;;22.89;72.78
62725;BME280;49026;52.600;4.694;2023-06-22T07:23:17;101934.00;;;23.13;73.00
62725;BME280;49026;52.600;4.694;2023-06-22T07:25:43;101933.31;;;23.22;71.95
62725;BME280;49026;52.600;4.694;2023-06-22T07:28:11;101937.00;;;23.33;71.84
62725;BME280;49026;52.600;4.694;2023-06-22T07:30:36;101938.50;;;23.48;73.05
62725;BME280;49026;52.600;4.694;2023-06-22T07:33:02;101935.97;;;23.69;71.92
62725;BME280;49026;52.600;4.694;2023-06-22T07:35:32;101932.22;;;23.83;71.67
62725;BME280;49026;52.600;4.694;2023-06-22T07:37:57;101930.72;;;23.67;69.28
62725;BME280;49026;52.600;4.694;2023-06-22T07:40:22;101931.94;;;23.75;71.44
62725;BME280;49026;52.600;4.694;2023-06-22T07:42:48;101931.47;;;23.92;71.58
62725;BME280;49026;52.600;4.694;2023-06-22T07:45:13;101938.56;;;23.93;70.49
62725;BME280;49026;52.600;4.694;2023-06-22T07:47:39;101923.16;;;23.95;69.94
62725;BME280;49026;52.600;4.694;2023-06-22T07:50:04;101924.88;;;23.96;69.46
62725;BME280;49026;52.600;4.694;2023-06-22T07:52:31;101924.88;;;23.96;69.97
62725;BME280;49026;52.600;4.694;2023-06-22T07:54:56;101927.91;;;24.26;70.38
62725;BME280;49026;52.600;4.694;2023-06-22T07:57:24;101915.22;;;24.16;65.72
62725;BME280;49026;52.600;4.694;2023-06-22T07:59:57;101916.19;;;24.15;68.80
62725;BME280;49026;52.600;4.694;2023-06-22T08:02:25;101913.50;;;24.27;69.46
62725;BME280;49026;52.600;4.694;2023-06-22T08:04:51;101907.25;;;24.37;68.74
62725;BME280;49026;52.600;4.694;2023-06-22T08:07:16;101904.78;;;24.57;70.14
62725;BME280;49026;52.600;4.694;2023-06-22T08:09:47;101908.31;;;24.90;71.30
62725;BME280;49026;52.600;4.694;2023-06-22T08:12:15;101903.75;;;25.23;72.00
62725;BME280;49026;52.600;4.694;2023-06-22T08:14:43;101905.41;;;25.35;69.32
62725;BME280;49026;52.600;4.694;2023-06-22T08:17:11;101906.69;;;25.20;68.42
62725;BME280;49026;52.600;4.694;2023-06-22T08:19:37;101909.25;;;25.21;70.42
62725;BME280;49026;52.600;4.694;2023-06-22T08:22:02;101899.44;;;25.31;67.48
62725;BME280;49026;52.600;4.694;2023-06-22T08:24:30;101904.25;;;25.59;68.84
62725;BME280;49026;52.600;4.694;2023-06-22T08:26:55;101900.03;;;25.97;69.11
62725;BME280;49026;52.600;4.694;2023-06-22T08:29:21;101904.25;;;26.30;68.52
62725;BME280;49026;52.600;4.694;2023-06-22T08:31:49;101893.47;;;26.59;68.83
62725;BME280;49026;52.600;4.694;2023-06-22T08:34:14;101891.97;;;26.76;66.45
62725;BME280;49026;52.600;4.694;2023-06-22T08:36:40;101889.69;;;26.82;66.52
62725;BME280;49026;52.600;4.694;2023-06-22T08:39:08;101890.53;;;26.92;66.27
62725;BME280;49026;52.600;4.694;2023-06-22T08:41:36;101886.53;;;27.15;67.30
62725;BME280;49026;52.600;4.694;2023-06-22T08:44:01;101884.50;;;27.27;68.55
62725;BME280;49026;52.600;4.694;2023-06-22T08:46:27;101884.66;;;27.16;66.30
62725;BME280;49026;52.600;4.694;2023-06-22T08:48:57;101880.75;;;26.81;66.26
62725;BME280;49026;52.600;4.694;2023-06-22T08:51:23;101873.63;;;26.51;66.47
62725;BME280;49026;52.600;4.694;2023-06-22T08:53:48;101869.50;;;26.37;66.38
62725;BME280;49026;52.600;4.694;2023-06-22T08:56:13;101870.63;;;26.24;65.32
62725;BME280;49026;52.600;4.694;2023-06-22T08:58:39;101867.97;;;25.94;64.79
62725;BME280;49026;52.600;4.694;2023-06-22T09:01:04;101877.34;;;25.59;64.25
62725;BME280;49026;52.600;4.694;2023-06-22T09:03:29;101874.69;;;25.17;63.03
62725;BME280;49026;52.600;4.694;2023-06-22T09:06:00;101873.44;;;25.00;64.15
62725;BME280;49026;52.600;4.694;2023-06-22T09:08:25;101878.94;;;24.98;64.16
62725;BME280;49026;52.600;4.694;2023-06-22T09:10:50;101892.25;;;25.21;64.15
62725;BME280;49026;52.600;4.694;2023-06-22T09:13:18;101891.56;;;25.40;62.98
62725;BME280;49026;52.600;4.694;2023-06-22T09:15:45;101878.03;;;25.61;64.59
62725;BME280;49026;52.600;4.694;2023-06-22T09:18:10;101877.50;;;25.67;63.40
62725;BME280;49026;52.600;4.694;2023-06-22T09:20:40;101873.94;;;25.57;62.84
62725;BME280;49026;52.600;4.694;2023-06-22T09:23:05;101872.03;;;25.47;62.43
62725;BME280;49026;52.600;4.694;2023-06-22T09:25:31;101872.28;;;25.35;62.41
62725;BME280;49026;52.600;4.694;2023-06-22T09:27:56;101872.47;;;25.52;63.57
62725;BME280;49026;52.600;4.694;2023-06-22T09:30:21;101871.34;;;25.76;60.55
62725;BME280;49026;52.600;4.694;2023-06-22T09:32:47;101873.31;;;25.84;62.49
62725;BME280;49026;52.600;4.694;2023-06-22T09:35:12;101879.09;;;26.10;63.12
62725;BME280;49026;52.600;4.694;2023-06-22T09:37:40;101887.91;;;26.12;60.59
62725;BME280;49026;52.600;4.694;2023-06-22T09:40:07;101871.41;;;25.96;60.75
62725;BME280;49026;52.600;4.694;2023-06-22T09:42:36;101873.84;;;26.09;61.43
62725;BME280;49026;52.600;4.694;2023-06-22T09:45:02;101873.72;;;26.10;60.32
62725;BME280;49026;52.600;4.694;2023-06-22T09:47:28;101875.56;;;26.19;60.00
62725;BME280;49026;52.600;4.694;2023-06-22T09:49:56;101871.31;;;26.17;59.66
62725;BME280;49026;52.600;4.694;2023-06-22T09:52:24;101875.00;;;26.25;60.05
62725;BME280;49026;52.600;4.694;2023-06-22T09:54:50;101862.13;;;26.29;59.20
62725;BME280;49026;52.600;4.694;2023-06-22T09:57:15;101863.25;;;26.27;58.70
62725;BME280;49026;52.600;4.694;2023-06-22T09:59:40;101860.69;;;26.44;59.49
62725;BME280;49026;52.600;4.694;2023-06-22T10:02:06;101857.50;;;26.80;60.45
62725;BME280;49026;52.600;4.694;2023-06-22T10:04:32;101859.97;;;27.21;59.50
62725;BME280;49026;52.600;4.694;2023-06-22T10:06:58;101845.91;;;27.37;60.40
62725;BME280;49026;52.600;4.694;2023-06-22T10:09:23;101851.03;;;27.30;58.25
62725;BME280;49026;52.600;4.694;2023-06-22T10:11:48;101845.50;;;27.12;57.87
62725;BME280;49026;52.600;4.694;2023-06-22T10:14:13;101848.38;;;27.01;58.50
62725;BME280;49026;52.600;4.694;2023-06-22T10:16:39;101850.75;;;27.13;58.06
62725;BME280;49026;52.600;4.694;2023-06-22T10:19:06;101850.97;;;27.40;58.52
62725;BME280;49026;52.600;4.694;2023-06-22T10:21:31;101836.72;;;27.57;58.25
62725;BME280;49026;52.600;4.694;2023-06-22T10:23:57;101833.59;;;27.80;58.59
62725;BME280;49026;52.600;4.694;2023-06-22T10:26:24;101833.91;;;28.04;57.67
62725;BME280;49026;52.600;4.694;2023-06-22T10:28:50;101827.13;;;28.00;57.21
62725;BME280;49026;52.600;4.694;2023-06-22T10:31:15;101829.31;;;27.87;56.71
62725;BME280;49026;52.600;4.694;2023-06-22T10:33:41;101824.44;;;27.63;56.14
62725;BME280;49026;52.600;4.694;2023-06-22T10:36:09;101828.66;;;27.47;57.51
62725;BME280;49026;52.600;4.694;2023-06-22T10:38:37;101817.13;;;27.55;56.80
62725;BME280;49026;52.600;4.694;2023-06-22T10:41:02;101830.47;;;27.57;56.05
62725;BME280;49026;52.600;4.694;2023-06-22T10:43:30;101831.38;;;27.28;55.44
62725;BME280;49026;52.600;4.694;2023-06-22T10:45:55;101833.28;;;27.08;55.89
62725;BME280;49026;52.600;4.694;2023-06-22T10:48:20;101825.34;;;27.06;56.93
62725;BME280;49026;52.600;4.694;2023-06-22T10:50:46;101830.00;;;27.14;56.09
62725;BME280;49026;52.600;4.694;2023-06-22T10:53:12;101832.00;;;27.22;55.82
62725;BME280;49026;52.600;4.694;2023-06-22T10:55:37;101838.19;;;27.42;55.89
62725;BME280;49026;52.600;4.694;2023-06-22T10:58:02;101838.78;;;27.91;56.10
62725;BME280;49026;52.600;4.694;2023-06-22T11:00:28;101839.56;;;28.29;56.09
62725;BME280;49026;52.600;4.694;2023-06-22T11:02:53;101829.56;;;28.57;55.27
62725;BME280;49026;52.600;4.694;2023-06-22T11:05:19;101826.75;;;28.93;55.84
62725;BME280;49026;52.600;4.694;2023-06-22T11:07:44;101835.50;;;29.31;54.70
62725;BME280;49026;52.600;4.694;2023-06-22T11:10:10;101830.56;;;29.27;53.15
62725;BME280;49026;52.600;4.694;2023-06-22T11:12:35;101822.84;;;28.88;53.06
62725;BME280;49026;52.600;4.694;2023-06-22T11:15:01;101816.25;;;28.46;54.31
62725;BME280;49026;52.600;4.694;2023-06-22T11:17:29;101818.63;;;28.31;54.77
62725;BME280;49026;52.600;4.694;2023-06-22T11:19:54;101820.78;;;28.09;53.28
62725;BME280;49026;52.600;4.694;2023-06-22T11:22:19;101820.56;;;28.03;54.76
62725;BME280;49026;52.600;4.694;2023-06-22T11:24:45;101820.78;;;28.09;54.22
62725;BME280;49026;52.600;4.694;2023-06-22T11:27:10;101822.50;;;28.11;54.49
62725;BME280;49026;52.600;4.694;2023-06-22T11:29:35;101823.59;;;27.90;53.98
62725;BME280;49026;52.600;4.694;2023-06-22T11:32:04;101816.53;;;27.79;53.57
62725;BME280;49026;52.600;4.694;2023-06-22T11:34:29;101829.88;;;27.53;53.13
62725;BME280;49026;52.600;4.694;2023-06-22T11:36:54;101821.19;;;27.22;53.68
62725;BME280;49026;52.600;4.694;2023-06-22T11:39:20;101828.28;;;27.23;54.32
62725;BME280;49026;52.600;4.694;2023-06-22T11:41:45;101824.16;;;27.28;52.97
62725;BME280;49026;52.600;4.694;2023-06-22T11:44:10;101827.72;;;27.19;53.27
62725;BME280;49026;52.600;4.694;2023-06-22T11:46:36;101823.22;;;27.10;52.44
62725;BME280;49026;52.600;4.694;2023-06-22T11:49:04;101815.84;;;27.12;52.54
62725;BME280;49026;52.600;4.694;2023-06-22T11:51:29;101824.34;;;27.17;52.05
62725;BME280;49026;52.600;4.694;2023-06-22T11:53:56;101822.03;;;27.22;52.10
62725;BME280;49026;52.600;4.694;2023-06-22T11:56:24;101820.81;;;27.07;52.48
62725;BME280;49026;52.600;4.694;2023-06-22T11:58:49;101809.75;;;27.10;52.85
62725;BME280;49026;52.600;4.694;2023-06-22T12:01:15;101803.91;;;27.05;52.51
62725;BME280;49026;52.600;4.694;2023-06-22T12:03:42;101814.16;;;26.91;52.74
62725;BME280;49026;52.600;4.694;2023-06-22T12:06:09;101811.06;;;26.86;52.55
62725;BME280;49026;52.600;4.694;2023-06-22T12:08:34;101815.34;;;26.79;52.15
62725;BME280;49026;52.600;4.694;2023-06-22T12:11:02;101804.84;;;26.56;52.76
62725;BME280;49026;52.600;4.694;2023-06-22T12:13:27;101807.09;;;26.51;53.67
62725;BME280;49026;52.600;4.694;2023-06-22T12:15:53;101808.66;;;26.54;53.50
62725;BME280;49026;52.600;4.694;2023-06-22T12:18:18;101807.97;;;26.61;53.49
62725;BME280;49026;52.600;4.694;2023-06-22T12:20:49;101793.88;;;26.58;52.94
62725;BME280;49026;52.600;4.694;2023-06-22T12:23:14;101787.25;;;26.33;52.67
62725;BME280;49026;52.600;4.694;2023-06-22T12:25:44;101795.75;;;26.18;53.07
62725;BME280;49026;52.600;4.694;2023-06-22T12:28:09;101781.84;;;26.03;53.13
62725;BME280;49026;52.600;4.694;2023-06-22T12:30:37;101783.53;;;25.95;52.95
62725;BME280;49026;52.600;4.694;2023-06-22T12:33:02;101785.34;;;25.84;53.05
62725;BME280;49026;52.600;4.694;2023-06-22T12:35:28;101782.44;;;25.57;52.43
62725;BME280;49026;52.600;4.694;2023-06-22T12:37:53;101782.09;;;25.40;53.40
62725;BME280;49026;52.600;4.694;2023-06-22T12:40:21;101769.75;;;25.28;53.02
62725;BME280;49026;52.600;4.694;2023-06-22T12:42:46;101779.09;;;25.03;53.11
62725;BME280;49026;52.600;4.694;2023-06-22T12:45:11;101777.56;;;24.89;53.42
62725;BME280;49026;52.600;4.694;2023-06-22T12:47:37;101779.28;;;24.90;53.84
62725;BME280;49026;52.600;4.694;2023-06-22T12:50:02;101776.66;;;25.00;53.76
62725;BME280;49026;52.600;4.694;2023-06-22T12:52:32;101773.25;;;24.98;53.22
62725;BME280;49026;52.600;4.694;2023-06-22T12:54:57;101767.72;;;24.99;53.92
62725;BME280;49026;52.600;4.694;2023-06-22T12:57:23;101766.59;;;25.02;53.69